KHVE/HVE METAR and TAF weather

Enter ICAO airport designator
Station Type Date Time Source
KHVE METAR 2023/02/05 20:55 UTC NOAA

KHVE 052055Z AUTO 00000KT 10SM CLR 09/M06 A2997 RMK AO2


Station Type Date Time Source
KHVE Decoded METAR 2023/02/05 20:55 UTC NOAA

Station name not available
Feb 05, 2023 - 03:55 PM EST / 2023.02.05 2055 UTC
Wind: Calm:0
Visibility: 10 mile(s):0
Sky conditions: clear
Temperature: 48 F (9 C)
Dew Point: 21 F (-6 C)
Relative Humidity: 34%
Pressure (altimeter): 29.97 in. Hg (1014 hPa)
ob: KHVE 052055Z AUTO 00000KT 10SM CLR 09/M06 A2997 RMK AO2
cycle: 21

Station Type Date Time Source
KHVE TAF UTC NOAA

Error!

Example: see airport list